sensor_id;sensor_type;location;lat;lon;timestamp;P1;durP1;ratioP1;P2;durP2;ratioP2
78312;SDS011;67568;47.438;21.408;2023-07-16T00:00:13;6.90;;;3.53;;
78312;SDS011;67568;47.438;21.408;2023-07-16T00:02:41;8.57;;;3.30;;
78312;SDS011;67568;47.438;21.408;2023-07-16T00:05:07;8.65;;;3.47;;
78312;SDS011;67568;47.438;21.408;2023-07-16T00:07:36;6.60;;;3.33;;
78312;SDS011;67568;47.438;21.408;2023-07-16T00:10:03;7.20;;;3.03;;
78312;SDS011;67568;47.438;21.408;2023-07-16T00:12:34;8.75;;;3.17;;
78312;SDS011;67568;47.438;21.408;2023-07-16T00:15:01;10.15;;;3.33;;
78312;SDS011;67568;47.438;21.408;2023-07-16T00:17:27;8.02;;;3.47;;
78312;SDS011;67568;47.438;21.408;2023-07-16T00:19:56;8.30;;;3.25;;
78312;SDS011;67568;47.438;21.408;2023-07-16T00:22:23;6.93;;;3.20;;
78312;SDS011;67568;47.438;21.408;2023-07-16T00:24:52;9.10;;;3.30;;
78312;SDS011;67568;47.438;21.408;2023-07-16T00:27:19;7.45;;;3.35;;
78312;SDS011;67568;47.438;21.408;2023-07-16T00:29:45;7.95;;;3.75;;
78312;SDS011;67568;47.438;21.408;2023-07-16T00:32:12;8.20;;;3.58;;
78312;SDS011;67568;47.438;21.408;2023-07-16T00:34:39;6.67;;;3.10;;
78312;SDS011;67568;47.438;21.408;2023-07-16T00:37:06;6.60;;;3.15;;
78312;SDS011;67568;47.438;21.408;2023-07-16T00:39:36;6.90;;;3.13;;
78312;SDS011;67568;47.438;21.408;2023-07-16T00:42:03;10.00;;;3.28;;
78312;SDS011;67568;47.438;21.408;2023-07-16T00:44:30;9.45;;;3.20;;
78312;SDS011;67568;47.438;21.408;2023-07-16T00:47:00;6.53;;;3.03;;
78312;SDS011;67568;47.438;21.408;2023-07-16T00:49:30;6.20;;;3.17;;
78312;SDS011;67568;47.438;21.408;2023-07-16T00:51:58;8.00;;;3.20;;
78312;SDS011;67568;47.438;21.408;2023-07-16T00:54:26;11.55;;;3.60;;
78312;SDS011;67568;47.438;21.408;2023-07-16T00:57:00;8.82;;;3.40;;
78312;SDS011;67568;47.438;21.408;2023-07-16T00:59:27;6.80;;;3.30;;
78312;SDS011;67568;47.438;21.408;2023-07-16T01:01:55;8.55;;;3.38;;
78312;SDS011;67568;47.438;21.408;2023-07-16T01:04:22;8.13;;;3.65;;
78312;SDS011;67568;47.438;21.408;2023-07-16T01:06:53;11.10;;;3.70;;
78312;SDS011;67568;47.438;21.408;2023-07-16T01:09:22;8.75;;;3.53;;
78312;SDS011;67568;47.438;21.408;2023-07-16T01:11:50;8.73;;;3.57;;
78312;SDS011;67568;47.438;21.408;2023-07-16T01:14:19;7.97;;;3.65;;
78312;SDS011;67568;47.438;21.408;2023-07-16T01:16:47;7.40;;;3.45;;
78312;SDS011;67568;47.438;21.408;2023-07-16T01:19:14;7.90;;;3.60;;
78312;SDS011;67568;47.438;21.408;2023-07-16T01:21:45;9.38;;;4.20;;
78312;SDS011;67568;47.438;21.408;2023-07-16T01:27:44;8.38;;;3.70;;
78312;SDS011;67568;47.438;21.408;2023-07-16T01:30:15;10.40;;;4.10;;
78312;SDS011;67568;47.438;21.408;2023-07-16T01:32:46;8.25;;;3.63;;
78312;SDS011;67568;47.438;21.408;2023-07-16T01:35:13;9.40;;;3.80;;
78312;SDS011;67568;47.438;21.408;2023-07-16T01:37:41;6.97;;;3.50;;
78312;SDS011;67568;47.438;21.408;2023-07-16T01:40:08;8.57;;;3.60;;
78312;SDS011;67568;47.438;21.408;2023-07-16T01:42:35;9.25;;;3.78;;
78312;SDS011;67568;47.438;21.408;2023-07-16T01:45:02;7.30;;;3.30;;
78312;SDS011;67568;47.438;21.408;2023-07-16T01:50:19;9.63;;;3.80;;
78312;SDS011;67568;47.438;21.408;2023-07-16T01:52:46;6.50;;;3.28;;
78312;SDS011;67568;47.438;21.408;2023-07-16T01:55:13;7.38;;;3.85;;
78312;SDS011;67568;47.438;21.408;2023-07-16T01:57:42;7.97;;;3.92;;
78312;SDS011;67568;47.438;21.408;2023-07-16T02:00:09;7.75;;;3.78;;
78312;SDS011;67568;47.438;21.408;2023-07-16T02:02:37;10.17;;;4.00;;
78312;SDS011;67568;47.438;21.408;2023-07-16T02:05:04;7.97;;;3.83;;
78312;SDS011;67568;47.438;21.408;2023-07-16T02:07:34;8.07;;;3.80;;
78312;SDS011;67568;47.438;21.408;2023-07-16T02:10:01;10.68;;;3.70;;
78312;SDS011;67568;47.438;21.408;2023-07-16T02:12:29;7.85;;;3.65;;
78312;SDS011;67568;47.438;21.408;2023-07-16T02:14:55;7.60;;;4.00;;
78312;SDS011;67568;47.438;21.408;2023-07-16T02:17:22;9.43;;;3.65;;
78312;SDS011;67568;47.438;21.408;2023-07-16T02:19:50;8.88;;;4.20;;
78312;SDS011;67568;47.438;21.408;2023-07-16T02:22:18;11.48;;;3.67;;
78312;SDS011;67568;47.438;21.408;2023-07-16T02:24:47;11.07;;;3.70;;
78312;SDS011;67568;47.438;21.408;2023-07-16T02:27:14;8.87;;;3.87;;
78312;SDS011;67568;47.438;21.408;2023-07-16T02:29:43;8.48;;;3.90;;
78312;SDS011;67568;47.438;21.408;2023-07-16T02:32:10;9.18;;;4.10;;
78312;SDS011;67568;47.438;21.408;2023-07-16T02:34:37;9.55;;;3.97;;
78312;SDS011;67568;47.438;21.408;2023-07-16T02:37:03;11.23;;;3.80;;
78312;SDS011;67568;47.438;21.408;2023-07-16T02:39:30;8.07;;;3.90;;
78312;SDS011;67568;47.438;21.408;2023-07-16T02:42:01;8.18;;;3.70;;
78312;SDS011;67568;47.438;21.408;2023-07-16T02:44:31;8.85;;;4.15;;
78312;SDS011;67568;47.438;21.408;2023-07-16T02:46:58;7.03;;;3.60;;
78312;SDS011;67568;47.438;21.408;2023-07-16T02:49:28;7.90;;;3.83;;
78312;SDS011;67568;47.438;21.408;2023-07-16T02:51:55;7.57;;;3.73;;
78312;SDS011;67568;47.438;21.408;2023-07-16T02:54:21;6.93;;;3.65;;
78312;SDS011;67568;47.438;21.408;2023-07-16T02:56:52;7.93;;;4.00;;
78312;SDS011;67568;47.438;21.408;2023-07-16T02:59:19;9.48;;;3.97;;
78312;SDS011;67568;47.438;21.408;2023-07-16T03:01:45;7.30;;;3.88;;
78312;SDS011;67568;47.438;21.408;2023-07-16T03:04:12;7.60;;;3.90;;
78312;SDS011;67568;47.438;21.408;2023-07-16T03:06:42;8.90;;;3.42;;
78312;SDS011;67568;47.438;21.408;2023-07-16T03:09:09;8.70;;;4.07;;
78312;SDS011;67568;47.438;21.408;2023-07-16T03:11:36;8.13;;;3.75;;
78312;SDS011;67568;47.438;21.408;2023-07-16T03:14:03;7.85;;;3.97;;
78312;SDS011;67568;47.438;21.408;2023-07-16T03:16:30;9.30;;;3.70;;
78312;SDS011;67568;47.438;21.408;2023-07-16T03:18:57;9.63;;;4.13;;
78312;SDS011;67568;47.438;21.408;2023-07-16T03:21:29;8.45;;;3.75;;
78312;SDS011;67568;47.438;21.408;2023-07-16T03:23:56;7.03;;;3.78;;
78312;SDS011;67568;47.438;21.408;2023-07-16T03:26:22;9.63;;;3.70;;
78312;SDS011;67568;47.438;21.408;2023-07-16T03:28:50;8.37;;;4.10;;
78312;SDS011;67568;47.438;21.408;2023-07-16T03:31:17;9.52;;;3.67;;
78312;SDS011;67568;47.438;21.408;2023-07-16T03:33:44;9.05;;;4.30;;
78312;SDS011;67568;47.438;21.408;2023-07-16T03:36:10;8.50;;;4.05;;
78312;SDS011;67568;47.438;21.408;2023-07-16T03:38:37;8.50;;;4.07;;
78312;SDS011;67568;47.438;21.408;2023-07-16T03:41:04;8.27;;;4.40;;
78312;SDS011;67568;47.438;21.408;2023-07-16T03:43:31;7.47;;;4.15;;
78312;SDS011;67568;47.438;21.408;2023-07-16T03:45:58;7.85;;;4.05;;
78312;SDS011;67568;47.438;21.408;2023-07-16T03:48:27;8.38;;;4.10;;
78312;SDS011;67568;47.438;21.408;2023-07-16T03:50:55;8.05;;;4.10;;
78312;SDS011;67568;47.438;21.408;2023-07-16T03:53:23;8.30;;;4.30;;
78312;SDS011;67568;47.438;21.408;2023-07-16T03:55:50;11.48;;;4.28;;
78312;SDS011;67568;47.438;21.408;2023-07-16T03:58:18;10.10;;;3.88;;
78312;SDS011;67568;47.438;21.408;2023-07-16T04:00:45;8.95;;;4.00;;
78312;SDS011;67568;47.438;21.408;2023-07-16T04:03:15;8.70;;;4.40;;
78312;SDS011;67568;47.438;21.408;2023-07-16T04:05:42;9.50;;;3.87;;
78312;SDS011;67568;47.438;21.408;2023-07-16T04:08:12;11.43;;;4.00;;
78312;SDS011;67568;47.438;21.408;2023-07-16T04:10:39;7.85;;;3.63;;
78312;SDS011;67568;47.438;21.408;2023-07-16T04:13:05;8.68;;;3.65;;
78312;SDS011;67568;47.438;21.408;2023-07-16T04:15:35;8.18;;;4.07;;
78312;SDS011;67568;47.438;21.408;2023-07-16T04:18:02;8.87;;;4.27;;
78312;SDS011;67568;47.438;21.408;2023-07-16T04:20:29;12.15;;;4.18;;
78312;SDS011;67568;47.438;21.408;2023-07-16T04:22:58;7.85;;;4.03;;
78312;SDS011;67568;47.438;21.408;2023-07-16T04:25:25;9.27;;;4.43;;
78312;SDS011;67568;47.438;21.408;2023-07-16T04:27:52;8.95;;;4.72;;
78312;SDS011;67568;47.438;21.408;2023-07-16T04:30:22;10.20;;;4.57;;
78312;SDS011;67568;47.438;21.408;2023-07-16T04:32:49;9.00;;;4.20;;
78312;SDS011;67568;47.438;21.408;2023-07-16T04:35:16;8.35;;;4.28;;
78312;SDS011;67568;47.438;21.408;2023-07-16T04:37:43;7.55;;;4.50;;
78312;SDS011;67568;47.438;21.408;2023-07-16T04:40:13;7.85;;;4.65;;
78312;SDS011;67568;47.438;21.408;2023-07-16T04:42:42;10.90;;;4.80;;
78312;SDS011;67568;47.438;21.408;2023-07-16T04:45:09;12.15;;;4.47;;
78312;SDS011;67568;47.438;21.408;2023-07-16T04:47:36;10.20;;;5.30;;
78312;SDS011;67568;47.438;21.408;2023-07-16T04:50:03;10.15;;;4.63;;
78312;SDS011;67568;47.438;21.408;2023-07-16T04:52:32;9.32;;;4.43;;
78312;SDS011;67568;47.438;21.408;2023-07-16T04:54:59;8.40;;;4.70;;
78312;SDS011;67568;47.438;21.408;2023-07-16T04:57:26;10.38;;;4.53;;
78312;SDS011;67568;47.438;21.408;2023-07-16T04:59:56;14.38;;;4.70;;
78312;SDS011;67568;47.438;21.408;2023-07-16T05:02:24;9.05;;;5.38;;
78312;SDS011;67568;47.438;21.408;2023-07-16T05:04:51;12.25;;;5.38;;
78312;SDS011;67568;47.438;21.408;2023-07-16T05:07:18;10.17;;;5.03;;
78312;SDS011;67568;47.438;21.408;2023-07-16T05:09:47;10.40;;;4.60;;
78312;SDS011;67568;47.438;21.408;2023-07-16T05:12:17;8.23;;;4.35;;
78312;SDS011;67568;47.438;21.408;2023-07-16T05:14:45;9.85;;;5.18;;
78312;SDS011;67568;47.438;21.408;2023-07-16T05:17:16;9.65;;;5.18;;
78312;SDS011;67568;47.438;21.408;2023-07-16T05:19:43;10.13;;;4.57;;
78312;SDS011;67568;47.438;21.408;2023-07-16T05:22:09;8.10;;;4.72;;
78312;SDS011;67568;47.438;21.408;2023-07-16T05:24:38;10.27;;;5.15;;
78312;SDS011;67568;47.438;21.408;2023-07-16T05:27:08;12.75;;;5.55;;
78312;SDS011;67568;47.438;21.408;2023-07-16T05:29:35;11.35;;;4.70;;
78312;SDS011;67568;47.438;21.408;2023-07-16T05:32:02;9.37;;;5.20;;
78312;SDS011;67568;47.438;21.408;2023-07-16T05:34:30;10.32;;;4.47;;
78312;SDS011;67568;47.438;21.408;2023-07-16T05:36:57;9.43;;;4.68;;
78312;SDS011;67568;47.438;21.408;2023-07-16T05:39:23;7.72;;;4.20;;
78312;SDS011;67568;47.438;21.408;2023-07-16T05:41:50;7.97;;;4.53;;
78312;SDS011;67568;47.438;21.408;2023-07-16T05:44:20;7.73;;;4.17;;
78312;SDS011;67568;47.438;21.408;2023-07-16T05:46:50;14.50;;;5.20;;
78312;SDS011;67568;47.438;21.408;2023-07-16T05:49:16;16.27;;;5.40;;
78312;SDS011;67568;47.438;21.408;2023-07-16T05:51:43;10.55;;;4.30;;
78312;SDS011;67568;47.438;21.408;2023-07-16T05:54:10;7.78;;;4.25;;
78312;SDS011;67568;47.438;21.408;2023-07-16T05:56:37;8.20;;;4.00;;
78312;SDS011;67568;47.438;21.408;2023-07-16T05:59:04;8.63;;;3.95;;
78312;SDS011;67568;47.438;21.408;2023-07-16T06:01:30;9.18;;;4.13;;
78312;SDS011;67568;47.438;21.408;2023-07-16T06:03:58;8.68;;;4.20;;
78312;SDS011;67568;47.438;21.408;2023-07-16T06:06:27;7.05;;;3.90;;
78312;SDS011;67568;47.438;21.408;2023-07-16T06:08:54;11.10;;;4.40;;
78312;SDS011;67568;47.438;21.408;2023-07-16T06:11:21;7.35;;;3.70;;
78312;SDS011;67568;47.438;21.408;2023-07-16T06:13:47;8.82;;;4.32;;
78312;SDS011;67568;47.438;21.408;2023-07-16T06:16:19;7.78;;;3.78;;
78312;SDS011;67568;47.438;21.408;2023-07-16T06:18:46;6.97;;;3.92;;
78312;SDS011;67568;47.438;21.408;2023-07-16T06:21:13;7.50;;;4.20;;
78312;SDS011;67568;47.438;21.408;2023-07-16T06:23:40;8.30;;;3.78;;
78312;SDS011;67568;47.438;21.408;2023-07-16T06:26:07;9.73;;;4.50;;
78312;SDS011;67568;47.438;21.408;2023-07-16T06:28:36;7.93;;;4.30;;
78312;SDS011;67568;47.438;21.408;2023-07-16T06:31:03;7.97;;;3.70;;
78312;SDS011;67568;47.438;21.408;2023-07-16T06:33:29;6.80;;;3.40;;
78312;SDS011;67568;47.438;21.408;2023-07-16T06:36:02;7.40;;;3.72;;
78312;SDS011;67568;47.438;21.408;2023-07-16T06:38:31;8.38;;;3.65;;
78312;SDS011;67568;47.438;21.408;2023-07-16T06:41:03;6.60;;;3.70;;
78312;SDS011;67568;47.438;21.408;2023-07-16T06:43:29;7.53;;;3.97;;
78312;SDS011;67568;47.438;21.408;2023-07-16T06:46:02;7.57;;;4.20;;
78312;SDS011;67568;47.438;21.408;2023-07-16T06:48:29;7.55;;;3.60;;
78312;SDS011;67568;47.438;21.408;2023-07-16T06:50:56;7.72;;;3.80;;
78312;SDS011;67568;47.438;21.408;2023-07-16T06:53:32;8.20;;;4.20;;
78312;SDS011;67568;47.438;21.408;2023-07-16T06:55:59;8.00;;;4.00;;
78312;SDS011;67568;47.438;21.408;2023-07-16T06:58:32;8.63;;;4.03;;
78312;SDS011;67568;47.438;21.408;2023-07-16T07:00:59;9.13;;;3.90;;
78312;SDS011;67568;47.438;21.408;2023-07-16T07:03:27;8.93;;;4.00;;
78312;SDS011;67568;47.438;21.408;2023-07-16T07:05:57;7.20;;;3.75;;
78312;SDS011;67568;47.438;21.408;2023-07-16T07:08:23;8.40;;;4.00;;
78312;SDS011;67568;47.438;21.408;2023-07-16T07:10:51;7.77;;;3.60;;
78312;SDS011;67568;47.438;21.408;2023-07-16T07:13:18;7.00;;;3.67;;
78312;SDS011;67568;47.438;21.408;2023-07-16T07:15:45;8.45;;;4.10;;
78312;SDS011;67568;47.438;21.408;2023-07-16T07:18:12;5.88;;;3.25;;
78312;SDS011;67568;47.438;21.408;2023-07-16T07:20:39;8.63;;;4.10;;
78312;SDS011;67568;47.438;21.408;2023-07-16T07:23:11;7.67;;;4.03;;
78312;SDS011;67568;47.438;21.408;2023-07-16T07:25:38;7.80;;;3.80;;
78312;SDS011;67568;47.438;21.408;2023-07-16T07:28:05;7.40;;;3.83;;
78312;SDS011;67568;47.438;21.408;2023-07-16T07:30:34;8.23;;;4.40;;
78312;SDS011;67568;47.438;21.408;2023-07-16T07:33:04;7.35;;;3.80;;
78312;SDS011;67568;47.438;21.408;2023-07-16T07:35:31;9.90;;;3.73;;
78312;SDS011;67568;47.438;21.408;2023-07-16T07:37:58;7.78;;;3.72;;
78312;SDS011;67568;47.438;21.408;2023-07-16T07:40:25;7.43;;;3.72;;
78312;SDS011;67568;47.438;21.408;2023-07-16T07:42:54;8.65;;;3.70;;
78312;SDS011;67568;47.438;21.408;2023-07-16T07:45:25;8.57;;;3.88;;
78312;SDS011;67568;47.438;21.408;2023-07-16T07:47:52;9.47;;;4.20;;
78312;SDS011;67568;47.438;21.408;2023-07-16T07:50:19;6.93;;;3.55;;
78312;SDS011;67568;47.438;21.408;2023-07-16T07:52:48;6.72;;;3.63;;
78312;SDS011;67568;47.438;21.408;2023-07-16T07:55:14;6.18;;;3.00;;
78312;SDS011;67568;47.438;21.408;2023-07-16T07:57:41;7.60;;;3.70;;
78312;SDS011;67568;47.438;21.408;2023-07-16T08:00:09;7.53;;;3.57;;
78312;SDS011;67568;47.438;21.408;2023-07-16T08:02:39;6.03;;;3.22;;
78312;SDS011;67568;47.438;21.408;2023-07-16T08:05:06;7.68;;;3.70;;
78312;SDS011;67568;47.438;21.408;2023-07-16T08:07:37;8.82;;;3.55;;
78312;SDS011;67568;47.438;21.408;2023-07-16T08:10:04;7.97;;;3.35;;
78312;SDS011;67568;47.438;21.408;2023-07-16T08:12:34;7.03;;;3.40;;
78312;SDS011;67568;47.438;21.408;2023-07-16T08:15:01;6.47;;;3.03;;
78312;SDS011;67568;47.438;21.408;2023-07-16T08:17:28;6.93;;;3.10;;
78312;SDS011;67568;47.438;21.408;2023-07-16T08:19:59;8.10;;;3.22;;
78312;SDS011;67568;47.438;21.408;2023-07-16T08:22:31;8.15;;;3.13;;
78312;SDS011;67568;47.438;21.408;2023-07-16T08:24:58;7.77;;;2.87;;
78312;SDS011;67568;47.438;21.408;2023-07-16T08:27:26;7.82;;;2.95;;
78312;SDS011;67568;47.438;21.408;2023-07-16T08:29:53;8.63;;;3.17;;
78312;SDS011;67568;47.438;21.408;2023-07-16T08:32:20;6.20;;;2.80;;
78312;SDS011;67568;47.438;21.408;2023-07-16T08:34:50;6.40;;;2.63;;
78312;SDS011;67568;47.438;21.408;2023-07-16T08:37:17;7.50;;;2.77;;
78312;SDS011;67568;47.438;21.408;2023-07-16T08:39:44;15.50;;;3.03;;
78312;SDS011;67568;47.438;21.408;2023-07-16T08:42:10;7.03;;;2.60;;
78312;SDS011;67568;47.438;21.408;2023-07-16T08:44:38;6.70;;;2.72;;
78312;SDS011;67568;47.438;21.408;2023-07-16T08:47:05;8.52;;;3.03;;
78312;SDS011;67568;47.438;21.408;2023-07-16T08:49:35;6.70;;;2.67;;
78312;SDS011;67568;47.438;21.408;2023-07-16T08:52:05;6.43;;;2.78;;
78312;SDS011;67568;47.438;21.408;2023-07-16T08:54:34;6.38;;;2.40;;
78312;SDS011;67568;47.438;21.408;2023-07-16T08:57:01;6.38;;;3.22;;
78312;SDS011;67568;47.438;21.408;2023-07-16T08:59:28;6.50;;;2.72;;
78312;SDS011;67568;47.438;21.408;2023-07-16T09:01:58;6.80;;;3.00;;
78312;SDS011;67568;47.438;21.408;2023-07-16T09:04:25;6.00;;;2.50;;
78312;SDS011;67568;47.438;21.408;2023-07-16T09:06:55;10.10;;;2.58;;
78312;SDS011;67568;47.438;21.408;2023-07-16T09:09:25;6.93;;;2.72;;
78312;SDS011;67568;47.438;21.408;2023-07-16T09:11:52;6.22;;;2.63;;
78312;SDS011;67568;47.438;21.408;2023-07-16T09:14:19;6.73;;;2.97;;
78312;SDS011;67568;47.438;21.408;2023-07-16T09:16:53;5.40;;;2.58;;
78312;SDS011;67568;47.438;21.408;2023-07-16T09:19:20;8.07;;;2.70;;
78312;SDS011;67568;47.438;21.408;2023-07-16T09:21:48;6.80;;;2.72;;
78312;SDS011;67568;47.438;21.408;2023-07-16T09:24:19;7.70;;;2.88;;
78312;SDS011;67568;47.438;21.408;2023-07-16T09:26:48;7.97;;;2.70;;
78312;SDS011;67568;47.438;21.408;2023-07-16T09:29:21;6.63;;;2.67;;
78312;SDS011;67568;47.438;21.408;2023-07-16T09:32:00;5.82;;;2.65;;
78312;SDS011;67568;47.438;21.408;2023-07-16T09:34:28;7.45;;;2.97;;
78312;SDS011;67568;47.438;21.408;2023-07-16T09:36:56;9.27;;;2.67;;
78312;SDS011;67568;47.438;21.408;2023-07-16T09:39:27;6.70;;;2.50;;
78312;SDS011;67568;47.438;21.408;2023-07-16T09:41:59;6.63;;;2.88;;
78312;SDS011;67568;47.438;21.408;2023-07-16T09:44:29;5.32;;;2.60;;
78312;SDS011;67568;47.438;21.408;2023-07-16T09:46:56;5.95;;;2.42;;
78312;SDS011;67568;47.438;21.408;2023-07-16T09:49:28;5.13;;;2.30;;
78312;SDS011;67568;47.438;21.408;2023-07-16T09:51:57;5.00;;;2.40;;
78312;SDS011;67568;47.438;21.408;2023-07-16T09:54:25;8.40;;;3.00;;
78312;SDS011;67568;47.438;21.408;2023-07-16T09:56:54;5.75;;;2.40;;
78312;SDS011;67568;47.438;21.408;2023-07-16T09:59:23;7.80;;;2.92;;
78312;SDS011;67568;47.438;21.408;2023-07-16T10:01:51;11.07;;;2.90;;
78312;SDS011;67568;47.438;21.408;2023-07-16T10:04:22;7.97;;;2.93;;
78312;SDS011;67568;47.438;21.408;2023-07-16T10:09:35;6.95;;;2.95;;
78312;SDS011;67568;47.438;21.408;2023-07-16T10:14:44;7.65;;;2.70;;
78312;SDS011;67568;47.438;21.408;2023-07-16T10:17:30;9.90;;;2.70;;
78312;SDS011;67568;47.438;21.408;2023-07-16T10:20:05;6.47;;;2.55;;
78312;SDS011;67568;47.438;21.408;2023-07-16T10:27:46;6.35;;;2.20;;
78312;SDS011;67568;47.438;21.408;2023-07-16T10:30:14;6.53;;;2.33;;
78312;SDS011;67568;47.438;21.408;2023-07-16T10:32:41;6.35;;;2.30;;
78312;SDS011;67568;47.438;21.408;2023-07-16T10:35:09;5.35;;;2.33;;
78312;SDS011;67568;47.438;21.408;2023-07-16T10:37:39;5.20;;;2.30;;
78312;SDS011;67568;47.438;21.408;2023-07-16T10:40:10;4.97;;;2.30;;
78312;SDS011;67568;47.438;21.408;2023-07-16T10:42:42;6.07;;;2.30;;
78312;SDS011;67568;47.438;21.408;2023-07-16T10:45:13;6.38;;;2.15;;
78312;SDS011;67568;47.438;21.408;2023-07-16T10:47:50;6.68;;;2.03;;
78312;SDS011;67568;47.438;21.408;2023-07-16T10:50:19;5.35;;;1.95;;
78312;SDS011;67568;47.438;21.408;2023-07-16T10:52:51;5.53;;;2.40;;
78312;SDS011;67568;47.438;21.408;2023-07-16T10:55:19;8.23;;;2.40;;
78312;SDS011;67568;47.438;21.408;2023-07-16T10:57:49;6.30;;;2.40;;
78312;SDS011;67568;47.438;21.408;2023-07-16T11:00:17;5.80;;;2.38;;
78312;SDS011;67568;47.438;21.408;2023-07-16T11:02:44;6.20;;;2.25;;
78312;SDS011;67568;47.438;21.408;2023-07-16T11:05:11;5.20;;;2.10;;
78312;SDS011;67568;47.438;21.408;2023-07-16T11:07:43;8.63;;;2.30;;
78312;SDS011;67568;47.438;21.408;2023-07-16T11:10:19;4.40;;;1.95;;
78312;SDS011;67568;47.438;21.408;2023-07-16T11:12:50;4.68;;;1.95;;
78312;SDS011;67568;47.438;21.408;2023-07-16T11:15:18;4.90;;;2.10;;
78312;SDS011;67568;47.438;21.408;2023-07-16T11:18:07;5.60;;;2.28;;
78312;SDS011;67568;47.438;21.408;2023-07-16T11:20:36;8.60;;;2.40;;
78312;SDS011;67568;47.438;21.408;2023-07-16T11:23:03;6.10;;;2.70;;
78312;SDS011;67568;47.438;21.408;2023-07-16T11:25:30;8.52;;;2.85;;
78312;SDS011;67568;47.438;21.408;2023-07-16T11:27:57;4.65;;;2.10;;
78312;SDS011;67568;47.438;21.408;2023-07-16T11:30:24;6.53;;;2.60;;
78312;SDS011;67568;47.438;21.408;2023-07-16T11:32:57;5.80;;;2.10;;
78312;SDS011;67568;47.438;21.408;2023-07-16T11:35:25;5.03;;;2.15;;
78312;SDS011;67568;47.438;21.408;2023-07-16T11:37:54;7.03;;;2.42;;
78312;SDS011;67568;47.438;21.408;2023-07-16T11:40:24;6.03;;;2.13;;
78312;SDS011;67568;47.438;21.408;2023-07-16T11:42:53;5.95;;;2.70;;
78312;SDS011;67568;47.438;21.408;2023-07-16T11:45:22;7.67;;;2.90;;
78312;SDS011;67568;47.438;21.408;2023-07-16T11:47:51;6.40;;;2.88;;
78312;SDS011;67568;47.438;21.408;2023-07-16T11:50:19;7.65;;;2.55;;
78312;SDS011;67568;47.438;21.408;2023-07-16T11:52:54;4.68;;;2.30;;
78312;SDS011;67568;47.438;21.408;2023-07-16T11:55:23;9.27;;;2.47;;
78312;SDS011;67568;47.438;21.408;2023-07-16T11:57:49;6.23;;;2.60;;
78312;SDS011;67568;47.438;21.408;2023-07-16T12:00:18;6.43;;;2.33;;
78312;SDS011;67568;47.438;21.408;2023-07-16T12:02:45;7.20;;;2.50;;
78312;SDS011;67568;47.438;21.408;2023-07-16T12:05:15;6.20;;;2.50;;
78312;SDS011;67568;47.438;21.408;2023-07-16T12:07:41;6.95;;;2.42;;
78312;SDS011;67568;47.438;21.408;2023-07-16T12:10:08;6.80;;;2.60;;
78312;SDS011;67568;47.438;21.408;2023-07-16T12:12:35;6.05;;;2.55;;
78312;SDS011;67568;47.438;21.408;2023-07-16T12:15:02;7.80;;;2.67;;
78312;SDS011;67568;47.438;21.408;2023-07-16T12:17:35;7.45;;;2.33;;
78312;SDS011;67568;47.438;21.408;2023-07-16T12:20:02;5.57;;;2.50;;
78312;SDS011;67568;47.438;21.408;2023-07-16T12:22:33;6.30;;;2.67;;
78312;SDS011;67568;47.438;21.408;2023-07-16T12:25:00;7.57;;;2.85;;
78312;SDS011;67568;47.438;21.408;2023-07-16T12:27:27;6.43;;;2.90;;
78312;SDS011;67568;47.438;21.408;2023-07-16T12:29:54;6.57;;;2.65;;
78312;SDS011;67568;47.438;21.408;2023-07-16T12:32:20;7.07;;;2.90;;
78312;SDS011;67568;47.438;21.408;2023-07-16T12:34:50;7.43;;;3.10;;
78312;SDS011;67568;47.438;21.408;2023-07-16T12:37:17;6.38;;;2.50;;
78312;SDS011;67568;47.438;21.408;2023-07-16T12:39:46;7.10;;;2.70;;
78312;SDS011;67568;47.438;21.408;2023-07-16T12:42:13;7.82;;;3.20;;
78312;SDS011;67568;47.438;21.408;2023-07-16T12:44:40;7.40;;;2.95;;
78312;SDS011;67568;47.438;21.408;2023-07-16T12:47:07;7.87;;;3.00;;
78312;SDS011;67568;47.438;21.408;2023-07-16T12:49:36;6.63;;;2.63;;
78312;SDS011;67568;47.438;21.408;2023-07-16T12:52:03;6.90;;;2.92;;
78312;SDS011;67568;47.438;21.408;2023-07-16T12:54:31;8.10;;;3.03;;
78312;SDS011;67568;47.438;21.408;2023-07-16T12:56:58;7.97;;;2.80;;
78312;SDS011;67568;47.438;21.408;2023-07-16T12:59:25;10.47;;;3.30;;
78312;SDS011;67568;47.438;21.408;2023-07-16T13:01:52;7.45;;;3.00;;
78312;SDS011;67568;47.438;21.408;2023-07-16T13:04:21;6.15;;;3.08;;
78312;SDS011;67568;47.438;21.408;2023-07-16T13:06:48;7.55;;;3.25;;
78312;SDS011;67568;47.438;21.408;2023-07-16T13:09:15;8.40;;;2.90;;
78312;SDS011;67568;47.438;21.408;2023-07-16T13:11:42;9.17;;;3.17;;
78312;SDS011;67568;47.438;21.408;2023-07-16T13:14:09;7.35;;;3.00;;
78312;SDS011;67568;47.438;21.408;2023-07-16T13:16:35;10.93;;;3.42;;
78312;SDS011;67568;47.438;21.408;2023-07-16T13:19:02;5.90;;;2.65;;
78312;SDS011;67568;47.438;21.408;2023-07-16T13:21:32;11.48;;;3.70;;
78312;SDS011;67568;47.438;21.408;2023-07-16T13:24:01;10.10;;;3.40;;
78312;SDS011;67568;47.438;21.408;2023-07-16T13:26:27;8.13;;;3.60;;
78312;SDS011;67568;47.438;21.408;2023-07-16T13:28:55;7.15;;;3.60;;
78312;SDS011;67568;47.438;21.408;2023-07-16T13:31:22;8.98;;;3.78;;
78312;SDS011;67568;47.438;21.408;2023-07-16T13:33:51;8.88;;;3.22;;
78312;SDS011;67568;47.438;21.408;2023-07-16T13:36:18;8.47;;;3.47;;
78312;SDS011;67568;47.438;21.408;2023-07-16T13:38:45;7.38;;;3.55;;
78312;SDS011;67568;47.438;21.408;2023-07-16T13:41:14;12.07;;;3.50;;
78312;SDS011;67568;47.438;21.408;2023-07-16T13:43:41;7.32;;;3.67;;
78312;SDS011;67568;47.438;21.408;2023-07-16T13:46:08;7.38;;;3.50;;
78312;SDS011;67568;47.438;21.408;2023-07-16T13:48:35;6.27;;;3.47;;
78312;SDS011;67568;47.438;21.408;2023-07-16T13:51:22;8.68;;;3.53;;
78312;SDS011;67568;47.438;21.408;2023-07-16T13:53:50;10.77;;;4.20;;
78312;SDS011;67568;47.438;21.408;2023-07-16T13:56:17;7.35;;;3.47;;
78312;SDS011;67568;47.438;21.408;2023-07-16T13:58:45;8.35;;;3.80;;
78312;SDS011;67568;47.438;21.408;2023-07-16T14:01:14;8.10;;;3.90;;
78312;SDS011;67568;47.438;21.408;2023-07-16T14:03:43;11.75;;;4.00;;
78312;SDS011;67568;47.438;21.408;2023-07-16T14:06:11;7.25;;;3.60;;
78312;SDS011;67568;47.438;21.408;2023-07-16T14:08:44;7.10;;;3.60;;
78312;SDS011;67568;47.438;21.408;2023-07-16T14:11:11;6.53;;;3.83;;
78312;SDS011;67568;47.438;21.408;2023-07-16T14:13:38;8.47;;;3.63;;
78312;SDS011;67568;47.438;21.408;2023-07-16T14:16:05;8.40;;;3.90;;
78312;SDS011;67568;47.438;21.408;2023-07-16T14:18:32;6.95;;;3.95;;
78312;SDS011;67568;47.438;21.408;2023-07-16T14:20:58;11.27;;;4.15;;
78312;SDS011;67568;47.438;21.408;2023-07-16T14:23:25;11.80;;;4.05;;
78312;SDS011;67568;47.438;21.408;2023-07-16T14:26:02;9.40;;;4.07;;
78312;SDS011;67568;47.438;21.408;2023-07-16T14:28:29;6.80;;;3.83;;
78312;SDS011;67568;47.438;21.408;2023-07-16T14:30:56;9.93;;;3.88;;
78312;SDS011;67568;47.438;21.408;2023-07-16T14:33:23;10.30;;;4.13;;
78312;SDS011;67568;47.438;21.408;2023-07-16T14:35:50;11.10;;;4.55;;
78312;SDS011;67568;47.438;21.408;2023-07-16T14:38:17;8.70;;;4.40;;
78312;SDS011;67568;47.438;21.408;2023-07-16T14:40:43;11.80;;;5.32;;
78312;SDS011;67568;47.438;21.408;2023-07-16T14:43:13;7.97;;;4.40;;
78312;SDS011;67568;47.438;21.408;2023-07-16T14:45:40;11.95;;;4.65;;
78312;SDS011;67568;47.438;21.408;2023-07-16T14:48:10;10.50;;;4.75;;
78312;SDS011;67568;47.438;21.408;2023-07-16T14:50:37;7.17;;;4.23;;
78312;SDS011;67568;47.438;21.408;2023-07-16T14:53:04;11.90;;;5.18;;
78312;SDS011;67568;47.438;21.408;2023-07-16T14:55:36;11.57;;;5.10;;